Dallas, TX

8:51 AM CST on December 18, 2014 (GMT -0600)
Dallas Love | Change Station
CLOSE
Current Station
Airport
Location: Dallas Love,
Elevation: 486 ft
Nearby Weather Stations

Elev 486 ft 32.85 °N, 96.86 °W | Updated 51 minutes ago

Fog
Fog
44 °F
Feels Like 44 °F
N
0
Wind Variable Wind from North

Today
High -- | Low -- °F
--% Chance of Precip.
Yesterday
High -- | Low -- °F
Precip. -- in
7:24 AM 5:23 PM
Waning Crescent, 14% visible
Pressure 30.15 in
Visibility 1.5 miles
Clouds Overcast 400 ft
Dew Point 43 °F
Humidity 96%
Rainfall 0.00 in
Snow Depth Not available.
UV 0 out of 12
Pollen 9.00 out of 12
Air Quality Not available.
Flu Activity Not available.
SPECI KDAL 181400Z 00000KT 1 1/2SM -DZ BR OVC004 07/06 A3015 RMK AO2 DZB1355 P0000 T00670061

More Conditions Fewer Conditions

Pressure 30.15 in
Visibility 1.5 miles
Clouds Overcast 400 ft
Dew Point 43 °F
Humidity 96%
Rainfall 0.00 in
Snow Depth Not available.
UV 0 out of 12
Pollen 9.00 out of 12
Air Quality Not available.
Flu Activity Not available.
SPECI KDAL 181400Z 00000KT 1 1/2SM -DZ BR OVC004 07/06 A3015 RMK AO2 DZB1355 P0000 T00670061

More Conditions Fewer Conditions

Nowcast | as of 5:28 am CST on December 18, 2014

Areas of drizzle and fog will continue across much of north and central Texas through mid morning. Drizzle and fog will reduce visibilities down to 1 mile. A few locations could see visibility fall below 1 mile. If fog and heavy drizzle is encountered...remember to slow down and use low beam headlights. Temperatures this morning will remain cool...with readings in the upper 30s and mid 40s.

×

10-Day Weather Forecast

Almanac

Astronomy

Dec. 18, 2014 Rise Set
Actual Time
Civil Twilight
Nautical Twilight
Astronomical Twilight
Moon
Length of Visible Light
Length of Day
Tomorrow will be .
, % of the Moon is Illuminated

Today's Extremes

State Highs State Lows

Community

WunderPhotos

Upload Photos

1,778,929 photos uploaded!

WunderBlogs® & News

Nearby

Air Quality

  Air Quality AQ Index Pollutant
Not available.

Snow Depth

Station Depth Elevation

Earthquake Activity

City Distance Mag. Time & Date
Minimum magnitude displayed is 2.5.

Coastal Water Temperatures

Place Temperature

Nearby Weather Stations